Time;durP1;ratioP1;P1;durP2;ratioP2;P2;SDS_P1;SDS_P2;PMS_P1;PMS_P2;Temp;Humidity;BMP_temperature;BMP_pressure;BME280_temperature;BME280_humidity;BME280_pressure;Samples;Min_cycle;Max_cycle;Signal;HPM_P1;HPM_P2
2022/10/27 00:02:21;;;;;;;10.18;3.67;;;9.50;99.90;;;;;;5034049;28;20058;-81
2022/10/27 00:04:47;;;;;;;5.50;3.25;;;9.40;99.90;;;;;;5035956;28;20037;-81
2022/10/27 00:07:13;;;;;;;7.95;3.80;;;9.40;99.90;;;;;;5043149;28;20033;-81
2022/10/27 00:09:39;;;;;;;7.85;3.70;;;9.50;99.90;;;;;;5033005;28;20421;-81
2022/10/27 00:12:05;;;;;;;9.75;3.65;;;9.50;99.90;;;;;;5033923;28;20037;-81
2022/10/27 00:14:31;;;;;;;9.35;4.13;;;9.50;99.90;;;;;;5038724;28;20060;-81
2022/10/27 00:16:58;;;;;;;7.18;3.60;;;9.40;99.90;;;;;;5035107;28;20489;-82
2022/10/27 00:19:24;;;;;;;8.55;3.17;;;9.40;99.90;;;;;;5051643;28;20360;-81
2022/10/27 00:21:51;;;;;;;11.60;3.70;;;9.30;99.90;;;;;;5051604;28;20029;-81
2022/10/27 00:24:18;;;;;;;8.63;3.60;;;9.30;99.90;;;;;;5064547;28;20475;-80
2022/10/27 00:26:44;;;;;;;11.73;3.25;;;9.20;99.90;;;;;;5033286;28;20045;-81
2022/10/27 00:29:10;;;;;;;9.43;3.65;;;9.20;99.90;;;;;;5065490;28;20033;-81
2022/10/27 00:31:37;;;;;;;7.22;3.83;;;9.20;99.90;;;;;;5032238;28;20052;-82
2022/10/27 00:34:03;;;;;;;15.30;3.72;;;9.20;99.90;;;;;;5063312;28;20033;-81
2022/10/27 00:36:29;;;;;;;8.40;4.13;;;9.10;99.90;;;;;;5030507;28;20029;-81
2022/10/27 00:38:57;;;;;;;8.73;4.30;;;9.10;99.90;;;;;;5032700;28;20033;-81
2022/10/27 00:41:28;;;;;;;10.75;3.72;;;9.20;99.90;;;;;;5031812;28;20029;-81
2022/10/27 00:43:56;;;;;;;7.47;4.15;;;9.20;99.90;;;;;;5030723;28;20049;-82
2022/10/27 00:46:36;;;;;;;15.50;5.50;;;9.20;99.90;;;;;;5032026;28;20471;-81
2022/10/27 00:49:21;;;;;;;10.37;5.37;;;9.10;99.90;;;;;;5032783;28;20025;-82
2022/10/27 00:51:57;;;;;;;8.05;3.60;;;9.00;99.90;;;;;;5033055;28;20675;-82
2022/10/27 00:54:27;;;;;;;9.45;4.32;;;9.00;99.90;;;;;;5030353;28;20044;-81
2022/10/27 00:56:54;;;;;;;9.48;3.95;;;8.90;99.90;;;;;;5031322;28;20037;-82
2022/10/27 00:59:21;;;;;;;12.20;4.53;;;8.90;99.90;;;;;;5048715;28;20390;-81
2022/10/27 01:01:50;;;;;;;9.05;5.22;;;8.80;99.90;;;;;;5055762;28;20060;-82
2022/10/27 01:04:26;;;;;;;8.30;4.35;;;8.80;99.90;;;;;;5063998;28;20049;-81
2022/10/27 01:06:52;;;;;;;7.53;4.20;;;8.70;99.90;;;;;;5062317;28;20036;-82
2022/10/27 01:09:20;;;;;;;8.20;4.05;;;8.80;99.90;;;;;;5051077;28;20482;-81
2022/10/27 01:11:46;;;;;;;15.32;4.32;;;8.70;99.90;;;;;;5039945;28;20037;-82
2022/10/27 01:14:12;;;;;;;9.35;3.92;;;8.70;99.90;;;;;;5030697;28;20360;-81
2022/10/27 01:16:58;;;;;;;9.30;4.53;;;8.70;99.90;;;;;;5040320;28;20026;-82
2022/10/27 01:20:06;;;;;;;9.43;4.47;;;8.60;99.90;;;;;;5043941;28;20040;-81
2022/10/27 01:22:59;;;;;;;10.90;4.70;;;8.60;99.90;;;;;;5029192;28;20049;-81
2022/10/27 01:25:59;;;;;;;9.98;4.07;;;8.80;99.90;;;;;;5029457;28;20060;-82
2022/10/27 01:28:49;;;;;;;11.07;4.40;;;8.60;99.90;;;;;;5043136;28;20423;-81
2022/10/27 01:31:24;;;;;;;9.13;4.15;;;8.60;99.90;;;;;;5051552;28;20033;-81
2022/10/27 01:34:11;;;;;;;8.45;4.40;;;8.50;99.90;;;;;;5049466;28;20045;-81
2022/10/27 01:36:44;;;;;;;12.55;5.05;;;8.40;99.90;;;;;;5050377;28;20040;-82
2022/10/27 01:39:21;;;;;;;12.13;4.03;;;8.40;99.90;;;;;;5050072;28;20041;-81
2022/10/27 01:41:57;;;;;;;10.50;3.60;;;8.30;99.90;;;;;;5050938;28;20029;-82
2022/10/27 01:44:35;;;;;;;9.48;4.25;;;8.30;99.90;;;;;;5048686;28;20037;-81
2022/10/27 01:47:02;;;;;;;9.02;4.18;;;8.30;99.90;;;;;;5040453;28;20041;-81
2022/10/27 01:49:36;;;;;;;9.60;4.40;;;8.30;99.90;;;;;;5031050;28;20042;-81
2022/10/27 01:52:26;;;;;;;12.30;4.88;;;8.20;99.90;;;;;;5043679;28;20036;-81
2022/10/27 01:54:54;;;;;;;13.57;5.57;;;8.20;99.90;;;;;;5044071;28;20079;-81
2022/10/27 01:57:31;;;;;;;11.13;4.10;;;8.10;99.90;;;;;;5031362;28;20057;-80
2022/10/27 02:00:03;;;;;;;12.73;4.82;;;8.10;99.90;;;;;;5043790;28;20033;-81
2022/10/27 02:02:42;;;;;;;9.88;5.75;;;8.10;99.90;;;;;;5056538;28;20049;-81
2022/10/27 02:05:31;;;;;;;15.43;4.67;;;8.20;99.90;;;;;;5049630;28;20041;-81
2022/10/27 02:08:19;;;;;;;10.98;5.28;;;8.20;99.90;;;;;;5050523;28;20280;-81
2022/10/27 02:11:00;;;;;;;8.88;4.82;;;8.30;99.90;;;;;;5035094;28;20041;-81
2022/10/27 02:13:29;;;;;;;9.60;4.95;;;8.10;99.90;;;;;;5033969;28;20048;-81
2022/10/27 02:16:10;;;;;;;9.43;5.43;;;8.00;99.90;;;;;;5035271;28;20509;-81
2022/10/27 02:18:40;;;;;;;15.40;5.80;;;8.10;99.90;;;;;;5034307;28;20478;-81
2022/10/27 02:21:08;;;;;;;11.40;5.47;;;8.10;99.90;;;;;;5034762;28;20030;-81
2022/10/27 02:23:35;;;;;;;10.88;4.97;;;8.10;99.90;;;;;;5032748;28;20045;-80
2022/10/27 02:26:13;;;;;;;13.05;5.30;;;8.10;99.90;;;;;;5034681;28;20041;-81
2022/10/27 02:29:02;;;;;;;9.50;5.65;;;8.10;99.90;;;;;;5033004;28;20041;-81
2022/10/27 02:31:41;;;;;;;11.93;5.20;;;8.20;99.90;;;;;;5053384;28;20064;-81
2022/10/27 02:34:09;;;;;;;13.07;4.43;;;8.20;99.90;;;;;;5028650;28;20045;-81
2022/10/27 02:36:35;;;;;;;14.02;6.57;;;8.20;99.90;;;;;;5034014;28;20025;-81
2022/10/27 02:39:01;;;;;;;7.43;4.55;;;8.20;99.90;;;;;;5034625;28;20029;-82
2022/10/27 02:41:27;;;;;;;9.73;4.57;;;8.20;99.90;;;;;;5034401;28;20497;-82
2022/10/27 02:43:54;;;;;;;13.00;4.95;;;8.10;99.90;;;;;;5033307;28;20462;-81
2022/10/27 02:46:20;;;;;;;9.55;4.55;;;8.10;99.90;;;;;;5033335;28;20045;-80
2022/10/27 02:48:46;;;;;;;7.93;4.45;;;8.00;99.90;;;;;;5033652;28;20033;-81
2022/10/27 02:51:12;;;;;;;8.23;4.85;;;7.90;99.90;;;;;;5036902;28;20045;-81
2022/10/27 02:53:38;;;;;;;19.27;6.22;;;7.90;99.90;;;;;;5043204;28;20053;-81
2022/10/27 02:56:04;;;;;;;11.57;4.90;;;7.90;99.90;;;;;;5037777;28;20024;-81
2022/10/27 02:58:31;;;;;;;9.95;5.10;;;7.90;99.90;;;;;;5042305;28;20033;-82
2022/10/27 03:00:57;;;;;;;10.00;5.38;;;7.90;99.90;;;;;;5034021;28;20045;-82
2022/10/27 03:03:23;;;;;;;16.02;5.10;;;7.80;99.90;;;;;;5032969;28;20033;-80
2022/10/27 03:05:49;;;;;;;11.13;4.53;;;7.70;99.90;;;;;;5034103;28;20041;-81
2022/10/27 03:08:15;;;;;;;14.50;5.28;;;7.60;99.90;;;;;;5034076;28;20468;-81
2022/10/27 03:10:43;;;;;;;9.82;4.90;;;7.60;99.90;;;;;;5033251;28;20029;-82
2022/10/27 03:13:10;;;;;;;12.90;5.50;;;7.60;99.90;;;;;;5042525;28;20038;-81
2022/10/27 03:15:36;;;;;;;11.73;4.97;;;7.70;99.90;;;;;;5052107;28;20025;-81
2022/10/27 03:18:03;;;;;;;9.48;5.18;;;7.80;99.90;;;;;;5053479;28;20040;-81
2022/10/27 03:20:29;;;;;;;9.68;5.00;;;7.80;99.90;;;;;;5049814;28;20047;-81
2022/10/27 03:22:55;;;;;;;10.20;5.20;;;7.80;99.90;;;;;;5034147;28;20025;-81
2022/10/27 03:25:21;;;;;;;11.30;5.53;;;7.90;99.90;;;;;;5047639;28;20049;-79
2022/10/27 03:27:51;;;;;;;22.27;7.97;;;7.80;99.90;;;;;;5035289;28;20401;-80
2022/10/27 03:30:18;;;;;;;7.80;5.55;;;7.90;99.90;;;;;;5034018;28;20363;-80
2022/10/27 03:32:48;;;;;;;11.07;5.35;;;7.90;99.90;;;;;;5033427;28;20048;-80
2022/10/27 03:35:19;;;;;;;12.73;5.53;;;7.80;99.90;;;;;;5032976;28;20475;-81
2022/10/27 03:37:45;;;;;;;14.63;5.57;;;7.80;99.90;;;;;;5046717;28;20386;-79
2022/10/27 03:40:12;;;;;;;10.32;4.88;;;7.80;99.90;;;;;;5053447;28;20393;-79
2022/10/27 03:42:41;;;;;;;11.57;5.10;;;7.70;99.90;;;;;;5052678;28;20033;-80
2022/10/27 03:45:09;;;;;;;16.00;5.03;;;7.60;99.90;;;;;;5051689;28;20033;-80
2022/10/27 03:47:35;;;;;;;10.20;5.30;;;7.70;99.90;;;;;;5033163;28;20040;-80
2022/10/27 03:50:02;;;;;;;10.27;5.28;;;7.60;99.90;;;;;;5051760;28;20040;-80
2022/10/27 03:52:28;;;;;;;18.00;7.50;;;7.60;99.90;;;;;;5046758;28;20052;-80
2022/10/27 03:54:54;;;;;;;12.13;5.70;;;7.60;99.90;;;;;;5033609;28;20029;-80
2022/10/27 03:57:20;;;;;;;10.05;4.10;;;7.50;99.90;;;;;;5032795;28;20029;-80
2022/10/27 03:59:47;;;;;;;21.73;7.78;;;7.50;99.90;;;;;;5032359;28;20026;-80
2022/10/27 04:02:13;;;;;;;8.73;4.90;;;7.40;99.90;;;;;;5033469;28;20073;-80
2022/10/27 04:04:39;;;;;;;8.88;4.38;;;7.40;99.90;;;;;;5031513;28;20041;-82
2022/10/27 04:07:05;;;;;;;11.15;5.68;;;7.30;99.90;;;;;;5033276;28;20414;-81
2022/10/27 04:09:31;;;;;;;9.32;4.45;;;7.30;99.90;;;;;;5032600;28;20037;-82
2022/10/27 04:11:57;;;;;;;9.45;4.75;;;7.40;99.90;;;;;;5041089;28;20041;-82
2022/10/27 04:14:23;;;;;;;10.80;5.28;;;7.40;99.90;;;;;;5067770;28;20045;-80
2022/10/27 04:16:50;;;;;;;15.32;7.30;;;7.40;99.90;;;;;;5039407;28;20025;-83
2022/10/27 04:19:19;;;;;;;11.40;5.82;;;7.40;99.90;;;;;;5058971;28;20033;-83
2022/10/27 04:21:46;;;;;;;16.05;7.05;;;7.50;99.90;;;;;;5073508;28;20045;-85
2022/10/27 04:24:12;;;;;;;22.13;7.57;;;7.50;99.90;;;;;;5069776;28;20036;-86
2022/10/27 04:26:39;;;;;;;21.80;9.88;;;7.60;99.90;;;;;;5053230;28;20049;-84
2022/10/27 04:29:05;;;;;;;29.92;11.43;;;7.60;99.90;;;;;;5050571;28;20036;-84
2022/10/27 04:31:31;;;;;;;26.00;10.35;;;7.70;99.90;;;;;;5032015;28;20030;-84
2022/10/27 04:33:58;;;;;;;17.50;8.85;;;7.60;99.90;;;;;;5030714;28;20029;-84
2022/10/27 04:36:25;;;;;;;18.90;7.22;;;7.60;99.90;;;;;;5040672;28;20029;-81
2022/10/27 04:38:51;;;;;;;13.43;6.90;;;7.60;99.90;;;;;;5051800;28;20025;-83
2022/10/27 04:41:17;;;;;;;20.30;7.75;;;7.50;99.90;;;;;;5052177;28;20032;-83
2022/10/27 04:43:47;;;;;;;10.85;5.65;;;7.50;99.90;;;;;;5050668;28;20025;-84
2022/10/27 04:46:13;;;;;;;12.68;6.47;;;7.50;99.90;;;;;;5053343;28;20037;-84
2022/10/27 04:48:39;;;;;;;14.75;6.75;;;7.40;99.90;;;;;;5050674;28;20042;-84
2022/10/27 04:51:05;;;;;;;15.02;7.22;;;7.40;99.90;;;;;;5045949;28;20033;-85
2022/10/27 04:53:31;;;;;;;12.95;6.75;;;7.30;99.90;;;;;;5030577;28;20045;-84
2022/10/27 04:55:58;;;;;;;9.48;6.40;;;7.30;99.90;;;;;;5032415;28;20040;-84
2022/10/27 04:58:24;;;;;;;19.75;7.95;;;7.30;99.90;;;;;;5032407;28;20029;-81
2022/10/27 05:00:50;;;;;;;12.82;7.40;;;7.20;99.90;;;;;;5049403;28;20045;-84
2022/10/27 05:03:16;;;;;;;18.02;7.65;;;7.20;99.90;;;;;;5049726;28;20040;-83
2022/10/27 05:05:42;;;;;;;17.67;9.07;;;7.30;99.90;;;;;;5050377;28;20032;-83
2022/10/27 05:08:10;;;;;;;17.52;7.38;;;7.30;99.90;;;;;;5051429;28;20187;-84
2022/10/27 05:10:37;;;;;;;17.73;8.10;;;7.30;99.90;;;;;;5049169;28;20036;-84
2022/10/27 05:13:03;;;;;;;16.08;8.27;;;7.40;99.90;;;;;;5050110;28;20029;-83
2022/10/27 05:15:29;;;;;;;21.75;8.48;;;7.50;99.90;;;;;;5033098;28;20041;-83
2022/10/27 05:17:55;;;;;;;19.05;8.45;;;7.50;99.90;;;;;;5030862;28;20038;-84
2022/10/27 05:20:22;;;;;;;18.95;8.43;;;7.60;99.90;;;;;;5031944;28;20462;-84
2022/10/27 05:22:48;;;;;;;26.52;9.88;;;7.60;99.90;;;;;;5030859;28;20048;-83
2022/10/27 05:25:15;;;;;;;20.10;9.38;;;7.70;99.90;;;;;;5030846;28;20059;-84
2022/10/27 05:27:41;;;;;;;30.90;14.52;;;7.80;99.90;;;;;;5031016;28;20033;-84
2022/10/27 05:30:08;;;;;;;29.90;12.10;;;7.80;99.90;;;;;;5038747;28;20029;-84
2022/10/27 05:32:34;;;;;;;22.90;11.30;;;7.90;99.90;;;;;;5050078;28;20363;-83
2022/10/27 05:35:00;;;;;;;24.40;11.75;;;7.90;99.90;;;;;;5049888;28;20377;-82
2022/10/27 05:37:26;;;;;;;21.65;9.90;;;7.90;99.90;;;;;;5050971;28;20029;-80
2022/10/27 05:39:52;;;;;;;22.83;9.77;;;8.00;99.90;;;;;;5044822;28;20026;-83
2022/10/27 05:42:19;;;;;;;17.83;9.15;;;8.00;99.90;;;;;;5031528;28;20048;-83
2022/10/27 05:44:45;;;;;;;22.17;9.70;;;8.00;99.90;;;;;;5032543;28;20439;-83
2022/10/27 05:47:11;;;;;;;19.25;8.65;;;8.00;99.90;;;;;;5042668;28;20091;-83
2022/10/27 05:49:37;;;;;;;18.58;8.13;;;8.00;99.90;;;;;;5066933;28;20029;-83
2022/10/27 05:52:03;;;;;;;19.45;9.07;;;8.10;99.90;;;;;;5036377;28;20037;-83
2022/10/27 05:54:29;;;;;;;17.58;8.38;;;8.10;99.90;;;;;;5033445;28;20041;-81
2022/10/27 05:56:56;;;;;;;19.60;9.32;;;8.10;99.90;;;;;;5034983;28;20029;-82
2022/10/27 05:59:22;;;;;;;21.38;9.60;;;8.10;99.90;;;;;;5045099;28;20037;-83
2022/10/27 06:01:52;;;;;;;18.42;9.15;;;8.10;99.90;;;;;;5052041;28;20057;-85
2022/10/27 06:04:18;;;;;;;18.50;9.98;;;8.20;99.90;;;;;;5066217;28;20041;-84
2022/10/27 06:06:44;;;;;;;24.13;10.00;;;8.20;99.90;;;;;;5035028;28;20044;-83
2022/10/27 06:09:10;;;;;;;19.88;9.73;;;8.20;99.90;;;;;;5035338;28;20033;-83
2022/10/27 06:11:37;;;;;;;23.90;11.20;;;8.20;99.90;;;;;;5034557;28;20040;-83
2022/10/27 06:14:03;;;;;;;21.08;10.52;;;8.20;99.90;;;;;;5035748;28;20033;-83
2022/10/27 06:16:29;;;;;;;22.08;8.98;;;8.20;99.90;;;;;;5053738;28;20036;-81
2022/10/27 06:18:56;;;;;;;20.98;9.60;;;8.10;99.90;;;;;;5053893;28;20036;-83
2022/10/27 06:21:22;;;;;;;26.35;11.18;;;8.10;99.90;;;;;;5035538;28;20029;-83
2022/10/27 06:23:49;;;;;;;21.52;10.07;;;8.10;99.90;;;;;;5033311;28;20401;-83
2022/10/27 06:26:15;;;;;;;24.08;11.93;;;8.10;99.90;;;;;;5035248;28;20049;-84
2022/10/27 06:28:41;;;;;;;30.65;11.43;;;8.10;99.90;;;;;;5035572;28;20033;-83
2022/10/27 06:31:08;;;;;;;27.65;11.63;;;8.20;99.90;;;;;;5040818;28;20052;-84
2022/10/27 06:33:34;;;;;;;39.63;13.80;;;8.20;99.90;;;;;;5041841;28;20044;-83
2022/10/27 06:36:00;;;;;;;37.92;12.60;;;8.30;99.90;;;;;;5036750;28;20037;-83
2022/10/27 06:38:26;;;;;;;26.13;11.68;;;8.20;99.90;;;;;;5035485;28;20029;-84
2022/10/27 06:40:53;;;;;;;29.20;13.45;;;8.30;99.90;;;;;;5052274;28;20028;-83
2022/10/27 06:43:19;;;;;;;26.88;11.38;;;8.30;99.90;;;;;;5053075;28;20035;-83
2022/10/27 06:45:46;;;;;;;33.72;12.25;;;8.30;99.90;;;;;;5053589;28;20037;-84
2022/10/27 06:48:13;;;;;;;25.02;11.52;;;8.40;99.90;;;;;;5037866;28;20052;-83
2022/10/27 06:50:39;;;;;;;26.70;11.57;;;8.40;99.90;;;;;;5034790;28;20026;-84
2022/10/27 06:53:05;;;;;;;31.08;13.32;;;8.60;99.90;;;;;;5033399;28;20029;-84
2022/10/27 06:55:31;;;;;;;26.60;11.50;;;8.60;99.90;;;;;;5036678;28;20037;-82
2022/10/27 06:57:58;;;;;;;28.95;11.38;;;8.70;99.90;;;;;;5035418;28;20041;-83
2022/10/27 07:00:24;;;;;;;28.58;10.75;;;8.60;99.90;;;;;;5046872;28;20049;-83
2022/10/27 07:02:50;;;;;;;26.20;11.18;;;8.70;99.90;;;;;;5049837;28;20033;-83
2022/10/27 07:05:17;;;;;;;27.55;12.60;;;8.80;99.90;;;;;;5053225;28;20057;-84
2022/10/27 07:07:51;;;;;;;24.08;12.80;;;8.90;99.90;;;;;;5052457;28;20033;-83
2022/10/27 07:10:18;;;;;;;35.00;13.40;;;8.80;99.90;;;;;;5051953;28;20485;-82
2022/10/27 07:12:56;;;;;;;29.50;12.90;;;8.90;99.90;;;;;;5033992;28;20490;-82
2022/10/27 07:15:24;;;;;;;28.48;15.05;;;9.10;99.90;;;;;;5033685;28;20478;-83
2022/10/27 07:17:55;;;;;;;28.00;14.52;;;9.20;99.90;;;;;;5032590;28;20478;-83
2022/10/27 07:20:21;;;;;;;32.53;14.68;;;9.30;99.90;;;;;;5034497;28;20044;-84
2022/10/27 07:22:48;;;;;;;28.05;13.77;;;9.30;99.90;;;;;;5034422;28;20378;-83
2022/10/27 07:25:14;;;;;;;29.55;14.65;;;9.30;99.90;;;;;;5034140;28;20459;-85
2022/10/27 07:27:40;;;;;;;21.58;11.60;;;9.40;99.90;;;;;;5034433;28;20033;-85
2022/10/27 07:30:07;;;;;;;23.15;11.93;;;9.40;99.90;;;;;;5033872;28;20029;-85
2022/10/27 07:32:33;;;;;;;21.40;11.65;;;9.60;99.90;;;;;;5042678;28;20025;-82
2022/10/27 07:34:59;;;;;;;22.40;11.05;;;9.80;99.90;;;;;;5042200;28;20037;-86
2022/10/27 07:37:25;;;;;;;20.05;10.45;;;10.00;99.90;;;;;;5043712;28;20045;-84
2022/10/27 07:39:51;;;;;;;19.48;10.13;;;10.00;99.90;;;;;;5056346;28;20120;-83
2022/10/27 07:42:17;;;;;;;19.15;10.13;;;9.90;99.90;;;;;;5055751;28;20036;-84
2022/10/27 07:44:43;;;;;;;20.90;9.75;;;10.00;99.90;;;;;;5031376;28;20049;-86
2022/10/27 07:47:10;;;;;;;18.83;10.20;;;10.10;99.90;;;;;;5069126;28;20056;-85
2022/10/27 07:49:36;;;;;;;20.95;10.15;;;10.20;99.90;;;;;;5051776;28;20037;-81
2022/10/27 07:52:02;;;;;;;18.13;10.68;;;10.50;99.90;;;;;;5033717;28;20037;-85
2022/10/27 07:54:29;;;;;;;23.60;10.05;;;10.60;99.90;;;;;;5032135;28;20044;-86
2022/10/27 07:56:55;;;;;;;17.50;9.27;;;10.70;99.90;;;;;;5032994;28;20030;-85
2022/10/27 07:59:21;;;;;;;14.70;9.02;;;10.60;99.90;;;;;;5033588;28;20057;-86
2022/10/27 08:01:47;;;;;;;15.68;7.82;;;10.70;99.90;;;;;;5031942;28;20061;-86
2022/10/27 08:04:13;;;;;;;14.05;7.80;;;10.70;99.90;;;;;;5032539;28;20056;-85
2022/10/27 08:06:40;;;;;;;17.48;9.02;;;10.60;99.90;;;;;;5032750;28;20033;-84
2022/10/27 08:09:06;;;;;;;17.80;9.18;;;10.60;99.90;;;;;;5033929;28;20463;-86
2022/10/27 08:11:32;;;;;;;44.13;12.98;;;10.60;99.90;;;;;;5034358;28;20037;-85
2022/10/27 08:13:58;;;;;;;23.20;8.73;;;10.60;99.90;;;;;;5034371;28;20033;-85
2022/10/27 08:16:24;;;;;;;35.63;9.38;;;10.60;99.90;;;;;;5039663;28;20032;-86
2022/10/27 08:18:51;;;;;;;20.63;8.18;;;10.50;99.90;;;;;;5032891;28;20042;-86
2022/10/27 08:21:18;;;;;;;33.95;9.85;;;10.60;99.90;;;;;;5033385;28;20053;-85
2022/10/27 08:23:44;;;;;;;17.05;7.82;;;10.70;99.90;;;;;;5030532;28;20045;-84
2022/10/27 08:26:10;;;;;;;12.18;8.18;;;10.70;99.90;;;;;;5040761;28;20418;-84
2022/10/27 08:28:36;;;;;;;27.45;9.18;;;10.90;99.90;;;;;;5050915;28;20470;-80
2022/10/27 08:31:02;;;;;;;14.98;8.23;;;11.20;99.90;;;;;;5051422;28;20490;-84
2022/10/27 08:33:29;;;;;;;12.20;7.13;;;11.30;99.90;;;;;;5037265;28;20397;-85
2022/10/27 08:35:55;;;;;;;12.70;8.07;;;11.50;99.90;;;;;;5051032;28;20128;-84
2022/10/27 08:38:21;;;;;;;33.20;8.55;;;11.60;99.90;;;;;;5040037;28;20109;-88
2022/10/27 08:41:13;;;;;;;22.80;9.75;;;11.60;99.90;;;;;;5044590;28;20040;-79
2022/10/27 08:43:48;;;;;;;17.25;7.53;;;11.60;99.90;;;;;;5043881;28;20041;-81
2022/10/27 08:46:33;;;;;;;16.13;7.78;;;11.80;99.90;;;;;;5056507;28;20037;-83
2022/10/27 08:49:04;;;;;;;11.32;7.60;;;12.10;99.90;;;;;;5061255;28;20056;-84
2022/10/27 08:51:31;;;;;;;;;;;12.30;99.90;;;;;;5060605;28;20044;-84
2022/10/27 08:53:58;;;;;;;17.20;7.47;;;12.50;99.90;;;;;;5051577;28;19905;-83
2022/10/27 08:56:31;;;;;;;12.43;7.70;;;12.70;99.90;;;;;;5052278;28;20032;-84
2022/10/27 08:58:58;;;;;;;21.58;7.70;;;12.70;99.90;;;;;;5050802;28;20100;-85
2022/10/27 09:01:39;;;;;;;11.98;8.10;;;12.90;99.90;;;;;;5051507;28;20049;-84
2022/10/27 09:04:23;;;;;;;10.55;6.88;;;13.10;99.90;;;;;;5050521;28;20033;-84
2022/10/27 09:07:27;;;;;;;13.55;7.10;;;13.30;99.90;;;;;;5036521;28;20048;-80
2022/10/27 09:09:57;;;;;;;19.17;8.23;;;13.60;99.90;;;;;;5029537;28;20042;-81
2022/10/27 09:12:58;;;;;;;10.13;7.20;;;14.10;99.90;;;;;;5028953;28;20037;-83
2022/10/27 09:15:43;;;;;;;9.73;6.70;;;14.10;99.90;;;;;;5023778;28;20510;-83
2022/10/27 09:18:39;;;;;;;10.88;7.25;;;14.10;99.90;;;;;;5033584;28;20037;-83
2022/10/27 09:21:18;;;;;;;10.18;7.32;;;14.00;99.90;;;;;;5035636;28;20045;-83
2022/10/27 09:23:58;;;;;;;11.32;6.10;;;14.30;99.90;;;;;;5035162;28;20052;-83
2022/10/27 09:26:32;;;;;;;14.50;7.00;;;14.50;99.90;;;;;;5045802;28;20044;-83
2022/10/27 09:29:15;;;;;;;15.27;8.98;;;14.20;99.90;;;;;;5027429;28;20278;-83
2022/10/27 09:31:51;;;;;;;11.80;7.70;;;13.90;99.90;;;;;;5030155;28;20026;-82
2022/10/27 09:34:50;;;;;;;13.88;9.63;;;13.80;99.90;;;;;;5037882;28;20037;-79
2022/10/27 09:37:18;;;;;;;13.98;8.48;;;13.90;99.90;;;;;;5038746;28;20029;-78
2022/10/27 09:39:52;;;;;;;17.30;9.45;;;14.00;99.90;;;;;;5039757;28;20041;-78
2022/10/27 09:42:20;;;;;;;12.90;9.50;;;14.10;99.90;;;;;;5036697;28;20033;-79
2022/10/27 09:44:53;;;;;;;14.88;10.27;;;14.20;99.90;;;;;;5035338;28;20034;-79
2022/10/27 09:47:25;;;;;;;13.13;8.73;;;14.30;99.90;;;;;;5037234;28;20042;-78
2022/10/27 09:49:54;;;;;;;14.43;9.38;;;14.50;99.90;;;;;;5040213;28;20053;-78
2022/10/27 09:52:31;;;;;;;20.83;10.63;;;14.60;99.90;;;;;;5038475;28;20029;-77
2022/10/27 09:54:57;;;;;;;16.80;9.73;;;14.60;99.90;;;;;;5034529;28;20044;-77
2022/10/27 09:57:30;;;;;;;18.35;12.52;;;14.60;99.90;;;;;;5035639;28;20033;-78
2022/10/27 10:00:14;;;;;;;17.40;11.88;;;14.60;99.90;;;;;;5043443;28;20029;-78
2022/10/27 10:02:54;;;;;;;14.73;10.27;;;14.70;99.90;;;;;;5033093;28;20060;-79
2022/10/27 10:05:23;;;;;;;18.87;11.53;;;15.00;99.90;;;;;;5036475;28;20049;-78
2022/10/27 10:07:49;;;;;;;17.60;11.10;;;15.30;99.90;;;;;;5037523;28;20049;-79
2022/10/27 10:10:21;;;;;;;17.45;11.68;;;15.40;99.90;;;;;;5035727;28;20037;-78
2022/10/27 10:13:13;;;;;;;17.45;11.13;;;15.60;99.90;;;;;;5041030;28;20048;-79
2022/10/27 10:15:46;;;;;;;14.98;10.07;;;15.90;99.90;;;;;;5054577;28;20048;-79
2022/10/27 10:18:25;;;;;;;24.52;12.27;;;15.90;99.90;;;;;;5054838;28;20029;-79
2022/10/27 10:20:58;;;;;;;19.08;10.65;;;16.10;99.90;;;;;;5035488;28;20037;-78
2022/10/27 10:23:28;;;;;;;16.48;10.02;;;16.40;99.90;;;;;;5029614;28;20025;-79
2022/10/27 10:25:59;;;;;;;23.45;11.52;;;16.70;99.90;;;;;;5029920;28;20037;-78
2022/10/27 10:28:41;;;;;;;14.32;8.82;;;16.80;99.90;;;;;;5029919;28;20041;-77
2022/10/27 10:31:11;;;;;;;15.38;6.95;;;17.00;99.90;;;;;;5035296;28;20041;-79
2022/10/27 10:33:45;;;;;;;11.43;5.68;;;17.30;99.90;;;;;;5028701;28;20025;-78
2022/10/27 10:36:23;;;;;;;7.90;4.22;;;17.50;99.90;;;;;;5032222;28;20033;-78
2022/10/27 10:38:52;;;;;;;13.70;3.72;;;17.60;99.90;;;;;;5032879;28;20793;-77
2022/10/27 10:41:21;;;;;;;11.48;4.65;;;17.80;99.90;;;;;;5041347;28;20024;-77
2022/10/27 10:44:16;;;;;;;10.98;4.18;;;18.10;99.90;;;;;;5029520;28;20057;-77
2022/10/27 10:46:52;;;;;;;12.43;4.38;;;18.20;99.90;;;;;;5031684;28;20037;-78
2022/10/27 10:49:24;;;;;;;8.43;4.00;;;18.20;99.90;;;;;;5043582;28;20037;-77
2022/10/27 10:52:05;;;;;;;11.13;4.13;;;18.40;99.90;;;;;;5033902;28;20029;-78
2022/10/27 10:54:33;;;;;;;;;;;18.40;99.90;;;;;;5049184;28;20467;-77
2022/10/27 10:57:01;;;;;;;9.98;3.95;;;18.30;99.90;;;;;;5051432;28;19908;-78
2022/10/27 10:59:32;;;;;;;8.48;3.28;;;18.40;99.90;;;;;;5052461;28;20048;-77
2022/10/27 11:02:23;;;;;;;8.05;3.50;;;18.50;99.90;;;;;;5037260;28;20050;-78
2022/10/27 11:04:50;;;;;;;;;;;18.60;99.90;;;;;;5031867;28;20040;-79
2022/10/27 11:07:26;;;;;;;8.38;4.03;;;18.70;99.90;;;;;;5032345;28;19913;-78
2022/10/27 11:10:24;;;;;;;9.70;5.13;;;18.70;99.90;;;;;;5032245;28;20041;-78
2022/10/27 11:13:24;;;;;;;13.90;4.68;;;18.80;99.90;;;;;;5032903;28;20030;-78
2022/10/27 11:15:56;;;;;;;12.05;5.22;;;18.90;99.90;;;;;;5039510;28;20033;-79
2022/10/27 11:18:25;;;;;;;10.70;4.25;;;18.90;99.90;;;;;;5026381;28;20034;-78
2022/10/27 11:20:55;;;;;;;8.88;4.93;;;19.00;99.90;;;;;;5032319;28;20068;-82
2022/10/27 11:23:41;;;;;;;8.82;4.55;;;19.10;99.90;;;;;;5036549;28;20030;-78
2022/10/27 11:26:09;;;;;;;12.82;6.70;;;19.20;99.90;;;;;;5033329;28;20041;-79
2022/10/27 11:28:52;;;;;;;10.15;3.88;;;19.30;99.90;;;;;;5043249;28;20045;-81
2022/10/27 11:31:32;;;;;;;8.50;3.47;;;19.40;99.90;;;;;;5032181;28;20450;-80
2022/10/27 11:34:14;;;;;;;9.02;4.05;;;19.30;99.90;;;;;;5032521;28;20044;-78
2022/10/27 11:37:05;;;;;;;10.10;4.20;;;19.40;99.90;;;;;;5031766;28;20033;-79
2022/10/27 11:39:55;;;;;;;6.50;3.30;;;19.40;99.90;;;;;;5033946;28;20478;-80
2022/10/27 11:42:40;;;;;;;6.80;2.72;;;19.60;99.90;;;;;;5030030;28;20482;-79
2022/10/27 11:45:11;;;;;;;7.28;2.15;;;19.80;99.90;;;;;;5031703;28;20040;-79
2022/10/27 11:48:08;;;;;;;6.18;2.20;;;20.00;97.20;;;;;;5034464;28;20048;-79
2022/10/27 11:50:45;;;;;;;9.52;2.65;;;19.90;97.90;;;;;;5023463;28;20048;-78
2022/10/27 11:53:11;;;;;;;10.32;2.53;;;20.20;97.10;;;;;;5033982;28;20501;-78
2022/10/27 11:55:37;;;;;;;6.40;2.92;;;20.30;96.70;;;;;;5035789;28;20034;-77
2022/10/27 11:58:58;;;;;;;3.58;1.88;;;20.40;95.20;;;;;;5030604;28;20041;-77
2022/10/27 12:01:51;;;;;;;6.18;2.60;;;20.30;95.30;;;;;;5026005;28;20054;-79
2022/10/27 12:04:41;;;;;;;4.75;2.08;;;20.10;95.90;;;;;;5032967;28;20033;-79
2022/10/27 12:07:48;;;;;;;6.38;2.67;;;20.00;95.90;;;;;;5029174;28;20474;-79
2022/10/27 12:10:29;;;;;;;12.18;1.83;;;19.90;96.50;;;;;;5031569;28;20033;-79
2022/10/27 12:13:03;;;;;;;5.05;2.30;;;20.10;96.10;;;;;;5029510;28;20406;-79
2022/10/27 12:15:49;;;;;;;5.07;2.00;;;20.30;95.80;;;;;;5039375;28;20050;-78
2022/10/27 12:18:34;;;;;;;6.60;2.00;;;20.30;95.60;;;;;;5029233;28;20034;-78
2022/10/27 12:21:20;;;;;;;8.13;2.08;;;20.30;94.50;;;;;;5051060;28;20379;-79
2022/10/27 12:24:08;;;;;;;4.32;1.73;;;20.40;95.70;;;;;;5025878;28;20026;-79
2022/10/27 12:26:54;;;;;;;7.38;2.38;;;20.50;94.60;;;;;;5041892;28;20049;-79
2022/10/27 12:29:23;;;;;;;5.53;2.15;;;20.60;94.50;;;;;;5030853;28;20041;-79
2022/10/27 12:32:00;;;;;;;5.32;1.80;;;20.60;91.60;;;;;;5017592;28;20045;-79
2022/10/27 12:34:34;;;;;;;4.90;1.90;;;20.70;93.20;;;;;;5020041;28;20029;-80
2022/10/27 12:37:24;;;;;;;4.80;1.92;;;20.80;92.60;;;;;;5020680;28;20041;-79
2022/10/27 12:40:02;;;;;;;8.98;2.72;;;20.70;93.10;;;;;;5034427;28;20552;-79
2022/10/27 12:42:52;;;;;;;5.75;2.22;;;20.80;93.40;;;;;;5051198;28;20116;-79
2022/10/27 12:45:54;;;;;;;7.85;2.53;;;20.70;93.20;;;;;;5051096;28;20029;-79
2022/10/27 12:48:36;;;;;;;7.22;2.28;;;20.70;91.00;;;;;;5027585;28;20033;-78
2022/10/27 12:51:25;;;;;;;5.47;1.60;;;20.80;91.80;;;;;;5031438;28;20378;-78
2022/10/27 12:54:28;;;;;;;4.30;2.10;;;20.90;92.00;;;;;;5049627;28;20040;-78
2022/10/27 12:57:16;;;;;;;7.78;2.45;;;21.20;89.10;;;;;;5027397;28;20364;-80
2022/10/27 13:00:07;;;;;;;9.13;2.83;;;21.20;90.50;;;;;;5047761;28;20033;-78
2022/10/27 13:03:15;;;;;;;6.72;1.83;;;21.30;89.30;;;;;;5033155;28;20060;-78
2022/10/27 13:05:59;;;;;;;5.85;2.70;;;21.30;87.80;;;;;;5044398;28;20136;-79
2022/10/27 13:08:31;;;;;;;5.40;1.95;;;21.30;85.90;;;;;;5032861;28;20040;-82
2022/10/27 13:11:19;;;;;;;5.40;1.85;;;21.30;85.90;;;;;;5031357;28;20033;-80
2022/10/27 13:14:15;;;;;;;6.95;2.05;;;21.30;85.50;;;;;;5033519;28;20026;-80